Flight Track Log - Related Links

Times and Time Zones

All times are in EDT time to prevent confusion due to time zone crossing. See the LXJ437 flight status page for this flight to view local times or setup timezone preferences in your user account.

Time Position Orientation Groundspeed Altitude Reporting Facility
EDT Latitude Longitude Course Direction KTS MPH feet Rate Location/Type
Tue 12:48:55 PM 41.1911 -70.1450 252° West 183 211 5,300  Level Boston Center
Tue 12:50:07 PM 41.2242 -70.2239 299° West 207 238 6,600 1,545 Climbing Boston Center
Tue 12:51:07 PM 41.2656 -70.3247 299° West 234 269 8,700 2,700 Climbing Boston Center
Tue 12:52:07 PM 41.3092 -70.4228 301° West 255 293 12,000 2,650 Climbing Boston Center
Tue 12:53:00 PM 41.3527 -70.7686 256° West  Level FlightAware Approximate
Tue 12:53:07 PM 41.3589 -70.5347 301° West 307 353 14,000  Level Boston Center
Tue 12:54:00 PM 41.3235 -70.8894 252° West  Level FlightAware Approximate
Tue 12:54:19 PM 41.3903 -70.6608 288° West 336 387 15,500  Level Boston Center
Tue 12:55:19 PM 41.3550 -70.8114 253° West 335 386 16,700 750 Climbing Boston Center
Tue 12:56:19 PM 41.3253 -70.9308 252° West 340 391 17,000 800 Climbing Boston Center
Tue 12:57:19 PM 41.2978 -71.0558 254° West 346 398 18,300 1,200 Climbing Boston Center
Tue 12:58:19 PM 41.2639 -71.1808 250° West 353 406 19,400 850 Climbing Boston Center
Tue 12:59:19 PM 41.2317 -71.3028 251° West 353 406 20,000 300 Climbing Boston Center
Tue 01:00:19 PM 41.2119 -71.4108 256° West 363 418 20,000  Level Boston Center
Tue 01:01:19 PM 41.1758 -71.5658 253° West 369 425 20,000  Level Boston Center
Tue 01:02:19 PM 41.1517 -71.6739 253° West 359 413 20,000  Level Boston Center
Tue 01:03:19 PM 41.1358 -71.8117 261° West 365 420 20,000  Level Boston Center
Tue 01:04:19 PM 41.1178 -71.9717 262° West 391 450 20,000  Level Boston Center
Tue 01:05:19 PM 41.0994 -72.1097 260° West 391 450 20,000  Level Boston Center
Tue 01:06:19 PM 41.0706 -72.2419 254° West 386 444 20,000 -50 Level Boston Center
Tue 01:07:19 PM 41.0375 -72.3767 252° West 386 444 19,900 -1,550 Descending Boston Center
Tue 01:08:19 PM 41.0478 -72.4897 277° West 362 417 16,900 -3,450 Descending Boston Center
Tue 01:09:19 PM 41.0331 -72.6133 261° West 354 407 13,000 -2,450 Descending Boston Center
Tue 01:10:19 PM 40.9725 -72.7261 235° Southwest 343 395 12,000 -429 Descending Boston Center
Tue 01:11:39 PM 40.9000 -72.8333 228° Southwest 296 341 12,000 -171 Level New York TRACON
Tue 01:12:39 PM 40.8333 -72.9000 217° Southwest 299 344 11,600 -700 Descending New York TRACON
Tue 01:13:39 PM 40.7667 -72.9500 210° Southwest 292 336 10,600 -1,050 Descending New York TRACON
Tue 01:14:39 PM 40.7000 -73.0167 217° Southwest 275 316 9,500 -1,050 Descending New York TRACON
Tue 01:15:39 PM 40.6500 -73.0833 225° Southwest 277 319 8,500 -1,000 Descending New York TRACON
Tue 01:16:39 PM 40.6167 -73.1833 246° West 272 313 7,500 -1,000 Descending New York TRACON
Tue 01:17:39 PM 40.6500 -73.2667 298° West 272 313 6,500 -1,050 Descending New York TRACON
Tue 01:18:39 PM 40.7000 -73.3333 315° West 267 307 5,400 -1,050 Descending New York TRACON
Tue 01:19:39 PM 40.7500 -73.3833 323° Northwest 227 261 4,400 -850 Descending New York TRACON
Tue 01:20:39 PM 40.8000 -73.4333 323° Northwest 206 237 3,700 -700 Descending New York TRACON
Tue 01:21:39 PM 40.8167 -73.5000 288° West 188 216 3,000 -347 Descending New York TRACON
Tue 01:22:40 PM 40.8000 -73.5500 246° West 177 204 3,000  Level New York TRACON
Tue 01:23:40 PM 40.7833 -73.6000 246° West 166 191 3,000 -150 Level New York TRACON
Tue 01:24:40 PM 40.7500 -73.6500 229° Southwest 173 199 2,700 -600 Descending New York TRACON
Tue 01:25:40 PM 40.7000 -73.6833 207° Southwest 178 205 1,800 -900 Descending New York TRACON
Tue 01:26:40 PM 40.6667 -73.7333 229° Southwest 162 186 900 -900 Descending New York TRACON
Tue 01:28:00 PM 40.6333 -73.7667 North  Level FlightAware Approximate
Tue 01:35:00 PM 40.6398 -73.7789 North  Level Estimated
Tue 01:36:00 PM 40.6398 -73.7789 North  Level Estimated

Login

Don't have an account? Register now (free) for customized features, flight alerts, and more!